Time;durP1;ratioP1;P1;durP2;ratioP2;P2;SDS_P1;SDS_P2;PMS_P1;PMS_P2;Temp;Humidity;BMP_temperature;BMP_pressure;BME280_temperature;BME280_humidity;BME280_pressure;Samples;Min_cycle;Max_cycle;Signal;HPM_P1;HPM_P2
2021/06/15 00:01:42;;;;;;;14.20;9.37;;;;;;;;;;5117280;27;20486;-71
2021/06/15 00:04:11;;;;;;;14.77;10.03;;;;;;;;;;5112877;27;20476;-71
2021/06/15 00:06:38;;;;;;;17.63;9.67;;;;;;;;;;5101278;27;20474;-71
2021/06/15 00:09:07;;;;;;;19.40;10.10;;;;;;;;;;5117514;27;20490;-71
2021/06/15 00:11:36;;;;;;;18.20;10.80;;;;;;;;;;5116714;27;20738;-70
2021/06/15 00:14:04;;;;;;;15.23;9.77;;;;;;;;;;5117525;27;20469;-70
2021/06/15 00:16:31;;;;;;;15.50;10.27;;;;;;;;;;5117365;27;20550;-70
2021/06/15 00:18:59;;;;;;;15.50;10.60;;;;;;;;;;5116738;27;20843;-72
2021/06/15 00:21:27;;;;;;;18.13;10.60;;;;;;;;;;5117074;27;20466;-70
2021/06/15 00:23:55;;;;;;;16.57;11.03;;;;;;;;;;5118011;27;20487;-70
2021/06/15 00:26:22;;;;;;;15.97;11.10;;;;;;;;;;5117088;27;20508;-69
2021/06/15 00:28:53;;;;;;;16.20;11.13;;;;;;;;;;5117419;27;20746;-70
2021/06/15 00:31:23;;;;;;;17.70;10.67;;;;;;;;;;5116780;27;20494;-70
2021/06/15 00:33:51;;;;;;;16.90;10.83;;;;;;;;;;5116817;27;20512;-70
2021/06/15 00:36:24;;;;;;;21.37;10.80;;;;;;;;;;5106900;27;20848;-70
2021/06/15 00:38:51;;;;;;;22.73;12.40;;;;;;;;;;5116619;27;20472;-69
2021/06/15 00:41:25;;;;;;;17.40;12.20;;;;;;;;;;5116375;27;20534;-69
2021/06/15 00:43:54;;;;;;;19.67;13.87;;;;;;;;;;5117771;27;20561;-70
2021/06/15 00:46:22;;;;;;;17.17;13.00;;;;;;;;;;5117433;27;20565;-71
2021/06/15 00:48:50;;;;;;;19.10;13.33;;;;;;;;;;5117113;27;20447;-71
2021/06/15 00:51:18;;;;;;;15.80;12.80;;;;;;;;;;5116408;27;20464;-71
2021/06/15 00:53:46;;;;;;;16.57;13.53;;;;;;;;;;5116840;27;20465;-70
2021/06/15 00:56:14;;;;;;;17.23;13.70;;;;;;;;;;5120509;27;20458;-70
2021/06/15 00:58:41;;;;;;;23.73;12.80;;;;;;;;;;5120478;27;20454;-70
2021/06/15 01:01:11;;;;;;;20.23;14.23;;;;;;;;;;5121098;27;20522;-70
2021/06/15 01:03:38;;;;;;;17.00;13.03;;;;;;;;;;5121186;27;20485;-70
2021/06/15 01:06:10;;;;;;;20.70;14.27;;;;;;;;;;5120697;27;20543;-70
2021/06/15 01:08:42;;;;;;;17.70;13.83;;;;;;;;;;5121292;27;20569;-71
2021/06/15 01:11:17;;;;;;;19.80;13.53;;;;;;;;;;5120540;27;20512;-70
2021/06/15 01:13:49;;;;;;;22.63;14.53;;;;;;;;;;5120968;27;20549;-70
2021/06/15 01:16:24;;;;;;;22.50;13.73;;;;;;;;;;5100881;28;20467;-70
2021/06/15 01:18:53;;;;;;;17.50;13.90;;;;;;;;;;5100549;28;20447;-70
2021/06/15 01:21:21;;;;;;;20.10;13.60;;;;;;;;;;5111011;27;20458;-71
2021/06/15 01:24:01;;;;;;;21.33;12.00;;;;;;;;;;5120926;27;20552;-70
2021/06/15 01:26:52;;;;;;;24.67;14.07;;;;;;;;;;5120188;27;20489;-70
2021/06/15 01:29:26;;;;;;;22.47;12.73;;;;;;;;;;5081171;27;20866;-70
2021/06/15 01:31:55;;;;;;;22.60;13.60;;;;;;;;;;5118841;27;21063;-70
2021/06/15 01:34:24;;;;;;;22.80;15.87;;;;;;;;;;5120608;27;20918;-70
2021/06/15 01:36:57;;;;;;;20.80;13.43;;;;;;;;;;5120033;27;20480;-70
2021/06/15 01:39:28;;;;;;;20.93;14.03;;;;;;;;;;5120161;27;20462;-70
2021/06/15 01:41:59;;;;;;;22.87;16.00;;;;;;;;;;5120440;27;20458;-70
2021/06/15 01:44:29;;;;;;;20.00;14.50;;;;;;;;;;5120515;27;20537;-70
2021/06/15 01:46:59;;;;;;;21.37;13.77;;;;;;;;;;5120829;27;20562;-70
2021/06/15 01:49:30;;;;;;;22.03;13.90;;;;;;;;;;5120968;27;20458;-70
2021/06/15 01:51:59;;;;;;;22.10;13.30;;;;;;;;;;5120258;27;20457;-70
2021/06/15 01:54:27;;;;;;;22.07;15.00;;;;;;;;;;5120671;27;20842;-70
2021/06/15 01:56:56;;;;;;;21.77;14.60;;;;;;;;;;5119310;27;20784;-70
2021/06/15 01:59:26;;;;;;;20.50;15.07;;;;;;;;;;5119825;27;20512;-70
2021/06/15 02:01:57;;;;;;;20.63;14.33;;;;;;;;;;5119886;27;20909;-70
2021/06/15 02:04:27;;;;;;;21.30;15.30;;;;;;;;;;5120047;27;20489;-70
2021/06/15 02:06:55;;;;;;;29.73;15.80;;;;;;;;;;5118424;27;20455;-70
2021/06/15 02:09:24;;;;;;;21.90;15.17;;;;;;;;;;5119215;27;20450;-70
2021/06/15 02:11:52;;;;;;;20.97;15.30;;;;;;;;;;5118869;27;20458;-70
2021/06/15 02:14:23;;;;;;;23.80;15.93;;;;;;;;;;5119060;27;20787;-70
2021/06/15 02:16:53;;;;;;;20.37;15.17;;;;;;;;;;5117198;27;20467;-70
2021/06/15 02:19:24;;;;;;;21.50;14.93;;;;;;;;;;5116439;27;20515;-69
2021/06/15 02:21:54;;;;;;;20.03;14.97;;;;;;;;;;5099154;28;20693;-70
2021/06/15 02:24:24;;;;;;;26.40;15.73;;;;;;;;;;5108689;27;20739;-70
2021/06/15 02:26:52;;;;;;;18.23;14.20;;;;;;;;;;5119891;27;20941;-70
2021/06/15 02:29:23;;;;;;;20.60;14.47;;;;;;;;;;5119972;27;20491;-70
2021/06/15 02:31:53;;;;;;;27.60;14.67;;;;;;;;;;5099282;28;20448;-70
2021/06/15 02:34:24;;;;;;;20.40;15.30;;;;;;;;;;5112625;28;20945;-70
2021/06/15 02:36:53;;;;;;;24.73;14.93;;;;;;;;;;5118692;27;20455;-70
2021/06/15 02:39:22;;;;;;;23.43;15.83;;;;;;;;;;5119901;27;20467;-70
2021/06/15 02:41:53;;;;;;;21.37;15.13;;;;;;;;;;5118555;27;20455;-70
2021/06/15 02:44:21;;;;;;;22.53;13.90;;;;;;;;;;5118606;27;21002;-70
2021/06/15 02:46:50;;;;;;;23.40;15.10;;;;;;;;;;5118304;27;20442;-70
2021/06/15 02:49:20;;;;;;;18.90;14.97;;;;;;;;;;5118543;27;20455;-70
2021/06/15 02:51:57;;;;;;;26.33;14.90;;;;;;;;;;5118618;27;20529;-69
2021/06/15 02:54:28;;;;;;;19.73;12.37;;;;;;;;;;5118935;27;20462;-70
2021/06/15 02:56:58;;;;;;;23.30;13.97;;;;;;;;;;5111390;27;20447;-70
2021/06/15 02:59:29;;;;;;;17.83;13.20;;;;;;;;;;5119610;27;20541;-71
2021/06/15 03:01:57;;;;;;;17.43;13.17;;;;;;;;;;5119397;27;20458;-71
2021/06/15 03:04:28;;;;;;;18.17;11.97;;;;;;;;;;5118362;27;20578;-70
2021/06/15 03:06:57;;;;;;;23.30;11.80;;;;;;;;;;5118973;27;20451;-71
2021/06/15 03:09:26;;;;;;;16.23;11.73;;;;;;;;;;5118143;27;20537;-71
2021/06/15 03:12:04;;;;;;;20.20;11.70;;;;;;;;;;5107570;28;20486;-71
2021/06/15 03:14:32;;;;;;;15.13;11.00;;;;;;;;;;5118322;27;20571;-72
2021/06/15 03:17:04;;;;;;;20.33;10.90;;;;;;;;;;5102925;28;20937;-71
2021/06/15 03:19:36;;;;;;;19.03;10.97;;;;;;;;;;5117456;27;20515;-71
2021/06/15 03:22:07;;;;;;;17.63;11.40;;;;;;;;;;5118078;27;20525;-71
2021/06/15 03:24:36;;;;;;;16.33;10.50;;;;;;;;;;5118426;27;20490;-70
2021/06/15 03:27:06;;;;;;;13.33;11.93;;;;;;;;;;5117582;27;20455;-70
2021/06/15 03:29:35;;;;;;;24.33;10.77;;;;;;;;;;5117806;27;21046;-70
2021/06/15 03:32:04;;;;;;;12.90;10.60;;;;;;;;;;5117579;27;20524;-71
2021/06/15 03:34:33;;;;;;;16.10;10.87;;;;;;;;;;5117987;27;20473;-70
2021/06/15 03:37:03;;;;;;;17.07;10.27;;;;;;;;;;5117609;27;20443;-71
2021/06/15 03:39:34;;;;;;;19.77;9.57;;;;;;;;;;5117953;27;20469;-71
2021/06/15 03:42:03;;;;;;;15.80;9.57;;;;;;;;;;5118190;27;20533;-71
2021/06/15 03:44:31;;;;;;;11.63;8.60;;;;;;;;;;5117554;27;20481;-71
2021/06/15 03:47:00;;;;;;;14.33;8.47;;;;;;;;;;5117236;27;20516;-71
2021/06/15 03:49:44;;;;;;;13.03;9.17;;;;;;;;;;5117159;27;20451;-71
2021/06/15 03:52:13;;;;;;;23.63;8.67;;;;;;;;;;5105234;27;20442;-70
2021/06/15 03:54:44;;;;;;;10.30;8.33;;;;;;;;;;5116925;27;20469;-71
2021/06/15 03:57:13;;;;;;;14.57;8.07;;;;;;;;;;5117498;27;21092;-71
2021/06/15 03:59:43;;;;;;;14.93;9.40;;;;;;;;;;5115900;27;20566;-71
2021/06/15 04:02:12;;;;;;;14.80;9.33;;;;;;;;;;5117687;27;20467;-71
2021/06/15 04:04:42;;;;;;;11.00;7.60;;;;;;;;;;5117776;27;20486;-71
2021/06/15 04:07:14;;;;;;;14.20;8.10;;;;;;;;;;5117535;27;20903;-71
2021/06/15 04:09:45;;;;;;;11.50;7.60;;;;;;;;;;5116738;27;20798;-71
2021/06/15 04:12:14;;;;;;;11.90;7.47;;;;;;;;;;5116903;27;20461;-70
2021/06/15 04:14:49;;;;;;;15.10;8.67;;;;;;;;;;5096745;28;20502;-69
2021/06/15 04:17:19;;;;;;;11.37;7.63;;;;;;;;;;5096191;28;20797;-71
2021/06/15 04:19:54;;;;;;;13.13;7.70;;;;;;;;;;5096416;28;20502;-71
2021/06/15 04:22:24;;;;;;;13.40;7.17;;;;;;;;;;5113381;28;20512;-70
2021/06/15 04:25:05;;;;;;;17.30;7.83;;;;;;;;;;5112125;28;20570;-71
2021/06/15 04:27:34;;;;;;;12.33;6.80;;;;;;;;;;5108020;27;20925;-70
2021/06/15 04:30:02;;;;;;;12.87;6.83;;;;;;;;;;5096289;28;20463;-70
2021/06/15 04:32:33;;;;;;;12.03;7.07;;;;;;;;;;5096826;28;20538;-70
2021/06/15 04:35:02;;;;;;;11.10;7.30;;;;;;;;;;5095592;28;20496;-70
2021/06/15 04:37:31;;;;;;;14.90;8.30;;;;;;;;;;5095889;28;20443;-70
2021/06/15 04:40:07;;;;;;;13.10;6.80;;;;;;;;;;5095538;28;20930;-71
2021/06/15 04:42:38;;;;;;;12.83;6.67;;;;;;;;;;5095568;28;20473;-70
2021/06/15 04:45:07;;;;;;;13.50;7.10;;;;;;;;;;5096306;28;20495;-71
2021/06/15 04:47:38;;;;;;;10.00;6.13;;;;;;;;;;5095890;28;20463;-70
2021/06/15 04:50:12;;;;;;;9.90;6.50;;;;;;;;;;5096097;28;20455;-70
2021/06/15 04:52:40;;;;;;;16.93;6.17;;;;;;;;;;5095275;28;20680;-71
2021/06/15 04:55:10;;;;;;;15.70;6.67;;;;;;;;;;5095608;28;20467;-70
2021/06/15 04:57:39;;;;;;;7.13;5.40;;;;;;;;;;5105736;28;20447;-70
2021/06/15 05:00:08;;;;;;;8.77;5.50;;;;;;;;;;5115171;27;20870;-70
2021/06/15 05:02:36;;;;;;;23.30;7.03;;;;;;;;;;5115429;27;20455;-71
2021/06/15 05:05:06;;;;;;;12.10;6.40;;;;;;;;;;5115989;27;20492;-70
2021/06/15 05:07:34;;;;;;;13.87;5.83;;;;;;;;;;5116745;27;20454;-70
2021/06/15 05:10:03;;;;;;;11.03;6.27;;;;;;;;;;5115519;27;20920;-70
2021/06/15 05:12:34;;;;;;;13.17;6.40;;;;;;;;;;5115065;27;20451;-70
2021/06/15 05:15:10;;;;;;;12.40;5.77;;;;;;;;;;5115536;27;20869;-70
2021/06/15 05:17:40;;;;;;;8.33;5.10;;;;;;;;;;5115342;27;20457;-70
2021/06/15 05:20:12;;;;;;;12.40;5.87;;;;;;;;;;5115635;27;20561;-70
2021/06/15 05:22:43;;;;;;;18.70;6.50;;;;;;;;;;5114465;28;20884;-70
2021/06/15 05:25:13;;;;;;;9.50;5.17;;;;;;;;;;5114033;27;20976;-70
2021/06/15 05:27:43;;;;;;;12.43;5.20;;;;;;;;;;5115284;27;20491;-70
2021/06/15 05:30:12;;;;;;;8.63;4.50;;;;;;;;;;5114419;27;20553;-70
2021/06/15 05:32:40;;;;;;;19.57;5.23;;;;;;;;;;5113020;27;20477;-70
2021/06/15 05:35:09;;;;;;;12.30;4.50;;;;;;;;;;5109456;27;20474;-70
2021/06/15 05:37:37;;;;;;;11.37;4.53;;;;;;;;;;5094884;28;20452;-70
2021/06/15 05:40:06;;;;;;;12.10;4.83;;;;;;;;;;5094679;28;20456;-70
2021/06/15 05:42:36;;;;;;;6.17;4.20;;;;;;;;;;5097722;28;20444;-72
2021/06/15 05:45:07;;;;;;;10.80;4.37;;;;;;;;;;5117463;27;20580;-70
2021/06/15 05:47:43;;;;;;;8.87;4.77;;;;;;;;;;5117426;27;20455;-70
2021/06/15 05:50:13;;;;;;;13.13;4.53;;;;;;;;;;5117630;27;20544;-70
2021/06/15 05:52:41;;;;;;;9.07;3.70;;;;;;;;;;5116527;27;20588;-69
2021/06/15 05:55:11;;;;;;;7.37;3.77;;;;;;;;;;5116916;27;20475;-70
2021/06/15 05:57:39;;;;;;;12.60;4.57;;;;;;;;;;5116251;27;20734;-70
2021/06/15 06:00:16;;;;;;;7.73;4.40;;;;;;;;;;5116014;27;20897;-71
2021/06/15 06:02:44;;;;;;;11.77;3.30;;;;;;;;;;5117723;27;20461;-70
2021/06/15 06:08:10;;;;;;;8.67;3.23;;;;;;;;;;5117667;27;20877;-70
2021/06/15 06:10:41;;;;;;;12.27;4.80;;;;;;;;;;5118658;27;20480;-70
2021/06/15 06:13:12;;;;;;;6.23;2.80;;;;;;;;;;5118476;27;20542;-71
2021/06/15 06:15:47;;;;;;;6.47;3.50;;;;;;;;;;5118283;27;20458;-71
2021/06/15 06:18:16;;;;;;;11.60;4.20;;;;;;;;;;5117528;27;20850;-70
2021/06/15 06:20:44;;;;;;;6.87;3.20;;;;;;;;;;5117697;27;20561;-70
2021/06/15 06:23:12;;;;;;;10.03;3.00;;;;;;;;;;5118539;27;20545;-70
2021/06/15 06:25:40;;;;;;;5.83;3.17;;;;;;;;;;5117915;27;20483;-70
2021/06/15 06:28:08;;;;;;;9.27;3.10;;;;;;;;;;5117901;27;20485;-70
2021/06/15 06:30:42;;;;;;;8.03;4.03;;;;;;;;;;5118843;27;20450;-69
2021/06/15 06:33:12;;;;;;;11.43;3.50;;;;;;;;;;5116969;27;20503;-71
2021/06/15 06:35:40;;;;;;;6.47;4.47;;;;;;;;;;5116247;27;20447;-70
2021/06/15 06:38:11;;;;;;;8.03;3.43;;;;;;;;;;5118712;27;20560;-71
2021/06/15 06:40:39;;;;;;;12.10;3.93;;;;;;;;;;5117882;27;20493;-70
2021/06/15 06:43:11;;;;;;;5.10;3.13;;;;;;;;;;5118185;27;20933;-70
2021/06/15 06:45:39;;;;;;;10.63;3.77;;;;;;;;;;5117602;27;20565;-70
2021/06/15 06:48:08;;;;;;;6.47;3.20;;;;;;;;;;5116806;27;20514;-70
2021/06/15 06:50:37;;;;;;;8.67;4.20;;;;;;;;;;5124119;27;20620;-70
2021/06/15 06:53:08;;;;;;;9.73;3.23;;;;;;;;;;5132753;27;20533;-70
2021/06/15 06:55:48;;;;;;;17.00;3.67;;;;;;;;;;5116624;27;20557;-70
2021/06/15 06:58:20;;;;;;;9.57;3.47;;;;;;;;;;5108709;28;20458;-71
2021/06/15 07:00:49;;;;;;;5.40;2.20;;;;;;;;;;5112762;27;20468;-70
2021/06/15 07:03:17;;;;;;;11.87;3.40;;;;;;;;;;5108617;27;20461;-69
2021/06/15 07:05:48;;;;;;;8.03;2.47;;;;;;;;;;5106674;27;20518;-70
2021/06/15 07:08:15;;;;;;;9.00;2.27;;;;;;;;;;5105390;28;20452;-70
2021/06/15 07:10:43;;;;;;;11.63;3.03;;;;;;;;;;5108907;27;21077;-70
2021/06/15 07:13:11;;;;;;;5.73;1.67;;;;;;;;;;5113125;27;20451;-70
2021/06/15 07:15:40;;;;;;;6.53;1.90;;;;;;;;;;5114153;27;20467;-69
2021/06/15 07:18:08;;;;;;;7.90;2.30;;;;;;;;;;5115833;27;20445;-70
2021/06/15 07:20:36;;;;;;;4.10;2.00;;;;;;;;;;5106551;28;20466;-69
2021/06/15 07:23:06;;;;;;;4.37;1.60;;;;;;;;;;5107557;28;20448;-68
2021/06/15 07:25:34;;;;;;;4.17;1.63;;;;;;;;;;5111507;27;20483;-69
2021/06/15 07:28:05;;;;;;;8.17;2.27;;;;;;;;;;5111851;28;21006;-69
2021/06/15 07:30:39;;;;;;;5.50;2.20;;;;;;;;;;5110778;28;20474;-68
2021/06/15 07:33:14;;;;;;;5.47;1.60;;;;;;;;;;5106317;28;20446;-69
2021/06/15 07:35:42;;;;;;;10.87;1.97;;;;;;;;;;5104100;28;20528;-70
2021/06/15 07:38:14;;;;;;;7.80;1.70;;;;;;;;;;5114318;27;20457;-69
2021/06/15 07:40:42;;;;;;;5.30;2.20;;;;;;;;;;5112560;27;20443;-71
2021/06/15 07:43:12;;;;;;;6.13;1.70;;;;;;;;;;5117157;27;20855;-69
2021/06/15 07:45:43;;;;;;;11.83;2.20;;;;;;;;;;5117099;27;20482;-69
2021/06/15 07:48:16;;;;;;;4.57;1.93;;;;;;;;;;5116010;27;20893;-70
2021/06/15 07:50:44;;;;;;;7.67;2.20;;;;;;;;;;5115928;27;20542;-69
2021/06/15 07:53:14;;;;;;;4.13;1.43;;;;;;;;;;5117085;27;20549;-68
2021/06/15 07:55:45;;;;;;;5.90;1.50;;;;;;;;;;5116686;27;20531;-69
2021/06/15 07:58:14;;;;;;;4.83;1.97;;;;;;;;;;5114786;27;20514;-69
2021/06/15 08:00:54;;;;;;;4.40;1.43;;;;;;;;;;5114432;27;20466;-69
2021/06/15 08:03:24;;;;;;;3.70;1.63;;;;;;;;;;5107590;28;21006;-70
2021/06/15 08:05:52;;;;;;;8.07;1.97;;;;;;;;;;5103327;28;20499;-69
2021/06/15 08:08:25;;;;;;;5.90;2.00;;;;;;;;;;5111889;27;20466;-70
2021/06/15 08:10:56;;;;;;;6.57;1.50;;;;;;;;;;5114702;27;20470;-68
2021/06/15 08:19:33;;;;;;;4.90;1.70;;;;;;;;;;5079754;28;20488;-70
2021/06/15 08:22:04;;;;;;;4.53;1.43;;;;;;;;;;5131737;27;20460;-70
2021/06/15 08:24:35;;;;;;;5.60;1.20;;;;;;;;;;5132667;27;20463;-70
2021/06/15 08:27:06;;;;;;;3.67;1.13;;;;;;;;;;5109078;28;21285;-71
2021/06/15 08:29:38;;;;;;;4.03;1.00;;;;;;;;;;5108882;27;20467;-70
2021/06/15 08:32:09;;;;;;;4.73;1.43;;;;;;;;;;5098279;28;20890;-70
2021/06/15 08:34:37;;;;;;;3.23;1.47;;;;;;;;;;5102421;27;20578;-71
2021/06/15 08:37:05;;;;;;;3.10;1.33;;;;;;;;;;5104652;27;20559;-70
2021/06/15 08:39:49;;;;;;;9.80;5.53;;;;;;;;;;5106354;28;20463;-70
2021/06/15 08:45:28;;;;;;;1.90;1.00;;;;;;;;;;5099696;28;20458;-71
2021/06/15 08:47:58;;;;;;;2.90;0.90;;;;;;;;;;5115503;27;21083;-70
2021/06/15 08:50:29;;;;;;;5.30;1.20;;;;;;;;;;5115503;27;20742;-70
2021/06/15 08:52:59;;;;;;;3.77;1.50;;;;;;;;;;5114210;27;20455;-70
2021/06/15 08:55:30;;;;;;;4.50;1.50;;;;;;;;;;5116405;27;20489;-70
2021/06/15 08:58:08;;;;;;;5.80;1.40;;;;;;;;;;5114418;27;20586;-70
2021/06/15 09:00:36;;;;;;;2.40;1.23;;;;;;;;;;5114628;27;20485;-70
2021/06/15 09:03:07;;;;;;;3.13;1.20;;;;;;;;;;5114077;27;20900;-71
2021/06/15 09:05:35;;;;;;;4.10;1.37;;;;;;;;;;5107415;27;20470;-70
2021/06/15 09:08:05;;;;;;;3.43;1.20;;;;;;;;;;5096955;28;20754;-69
2021/06/15 09:10:38;;;;;;;9.23;2.00;;;;;;;;;;5106891;27;20451;-70
2021/06/15 09:13:13;;;;;;;3.00;1.43;;;;;;;;;;5095721;28;20456;-71
2021/06/15 09:15:46;;;;;;;4.10;0.97;;;;;;;;;;5105063;27;20459;-70
2021/06/15 09:18:28;;;;;;;6.50;1.30;;;;;;;;;;5119072;27;20462;-69
2021/06/15 09:20:59;;;;;;;4.00;1.70;;;;;;;;;;5113913;27;20560;-70
2021/06/15 09:23:37;;;;;;;3.50;1.20;;;;;;;;;;5113237;28;20455;-71
2021/06/15 09:26:11;;;;;;;9.90;2.80;;;;;;;;;;5118129;27;20841;-69
2021/06/15 09:28:51;;;;;;;5.23;1.07;;;;;;;;;;5117471;27;20872;-70
2021/06/15 09:31:20;;;;;;;3.07;1.20;;;;;;;;;;5104290;27;20469;-68
2021/06/15 09:33:49;;;;;;;6.37;2.07;;;;;;;;;;5104246;28;20458;-70
2021/06/15 09:36:29;;;;;;;3.30;1.07;;;;;;;;;;5114663;27;20534;-70
2021/06/15 09:39:01;;;;;;;3.57;1.50;;;;;;;;;;5109087;27;20553;-71
2021/06/15 09:41:46;;;;;;;4.00;1.23;;;;;;;;;;5117630;27;20470;-71
2021/06/15 09:44:16;;;;;;;3.60;0.90;;;;;;;;;;5113949;27;20695;-70
2021/06/15 09:46:44;;;;;;;4.43;1.20;;;;;;;;;;5118686;27;20474;-70
2021/06/15 09:49:48;;;;;;;4.93;1.00;;;;;;;;;;5113518;28;20463;-70
2021/06/15 09:52:17;;;;;;;3.50;1.10;;;;;;;;;;5100110;28;20486;-70
2021/06/15 09:54:47;;;;;;;5.80;1.13;;;;;;;;;;5119019;27;20466;-70
2021/06/15 09:57:22;;;;;;;5.87;1.50;;;;;;;;;;5116287;27;20531;-71
2021/06/15 10:00:00;;;;;;;3.63;1.60;;;;;;;;;;5116414;27;20758;-70
2021/06/15 10:02:28;;;;;;;6.50;1.60;;;;;;;;;;5110329;27;20451;-71
2021/06/15 10:04:56;;;;;;;3.87;1.13;;;;;;;;;;5117160;27;20474;-70
2021/06/15 10:07:27;;;;;;;4.13;1.80;;;;;;;;;;5110990;28;20493;-70
2021/06/15 10:09:56;;;;;;;4.77;1.70;;;;;;;;;;5105635;28;20459;-70
2021/06/15 10:12:27;;;;;;;4.63;2.00;;;;;;;;;;5097158;28;20459;-71
2021/06/15 10:15:02;;;;;;;3.10;1.30;;;;;;;;;;5112194;27;20459;-71
2021/06/15 10:17:31;;;;;;;3.33;2.03;;;;;;;;;;5099642;28;20465;-71
2021/06/15 10:20:05;;;;;;;9.83;1.50;;;;;;;;;;5097280;27;20558;-71
2021/06/15 10:22:36;;;;;;;6.20;1.87;;;;;;;;;;5096593;28;20759;-71
2021/06/15 10:25:09;;;;;;;3.70;1.20;;;;;;;;;;5117653;27;20439;-70
2021/06/15 10:27:40;;;;;;;3.40;1.33;;;;;;;;;;5099578;28;20601;-70
2021/06/15 10:30:14;;;;;;;6.60;1.50;;;;;;;;;;5097926;28;20865;-70
2021/06/15 10:35:45;;;;;;;7.10;4.27;;;;;;;;;;5098606;28;20546;-70
2021/06/15 10:38:14;;;;;;;7.53;4.53;;;;;;;;;;5110406;28;21093;-72
2021/06/15 10:40:49;;;;;;;3.93;1.50;;;;;;;;;;5112609;27;20449;-71
2021/06/15 10:43:28;;;;;;;3.87;1.47;;;;;;;;;;5115784;27;20553;-71
2021/06/15 10:45:59;;;;;;;3.03;1.27;;;;;;;;;;5109980;27;20450;-70
2021/06/15 10:48:48;;;;;;;3.97;1.40;;;;;;;;;;5125179;27;20484;-71
2021/06/15 10:51:24;;;;;;;3.10;1.00;;;;;;;;;;5106493;27;20475;-70
2021/06/15 10:53:53;;;;;;;3.53;1.37;;;;;;;;;;5096674;28;20467;-70
2021/06/15 10:56:23;;;;;;;5.87;1.17;;;;;;;;;;5116577;27;20544;-70
2021/06/15 10:59:10;;;;;;;10.40;1.90;;;;;;;;;;5116260;27;20990;-70
2021/06/15 11:01:39;;;;;;;3.13;1.20;;;;;;;;;;5116936;27;20450;-71
2021/06/15 11:04:08;;;;;;;4.30;1.10;;;;;;;;;;5116792;27;20588;-71
2021/06/15 11:06:40;;;;;;;3.90;1.20;;;;;;;;;;5117063;27;20486;-71
2021/06/15 11:09:34;;;;;;;7.90;2.63;;;;;;;;;;5116421;27;21380;-71
2021/06/15 11:12:19;;;;;;;7.00;2.00;;;;;;;;;;5109499;27;20459;-70
2021/06/15 11:15:05;;;;;;;3.53;1.33;;;;;;;;;;5116381;27;20541;-71
2021/06/15 11:17:46;;;;;;;3.60;1.20;;;;;;;;;;5115571;27;20546;-71
2021/06/15 11:20:14;;;;;;;4.63;1.60;;;;;;;;;;5116163;27;21158;-71
2021/06/15 11:22:42;;;;;;;5.80;1.60;;;;;;;;;;5105468;28;20752;-70
2021/06/15 11:25:10;;;;;;;5.73;1.50;;;;;;;;;;5116115;27;20467;-70
2021/06/15 11:27:38;;;;;;;3.10;1.10;;;;;;;;;;5112288;27;20531;-71
2021/06/15 11:30:23;;;;;;;4.50;1.40;;;;;;;;;;5115337;27;20553;-71
2021/06/15 11:33:04;;;;;;;3.73;1.13;;;;;;;;;;5114767;27;20515;-70
2021/06/15 11:35:39;;;;;;;14.00;1.87;;;;;;;;;;5096171;28;20874;-71
2021/06/15 11:38:15;;;;;;;6.23;1.80;;;;;;;;;;5115969;27;20880;-70
2021/06/15 11:40:43;;;;;;;6.50;1.50;;;;;;;;;;5111381;27;20465;-71
2021/06/15 11:43:18;;;;;;;7.57;1.33;;;;;;;;;;5107585;28;20902;-71
2021/06/15 11:45:48;;;;;;;2.90;1.50;;;;;;;;;;5116255;27;20501;-70
2021/06/15 11:48:54;;;;;;;6.13;2.00;;;;;;;;;;5116181;27;20478;-71
2021/06/15 11:51:29;;;;;;;4.00;1.60;;;;;;;;;;5103785;28;20506;-71
2021/06/15 11:53:58;;;;;;;5.40;1.50;;;;;;;;;;5100906;28;20453;-72
2021/06/15 11:56:33;;;;;;;3.90;1.30;;;;;;;;;;5095305;28;20452;-71
2021/06/15 11:59:03;;;;;;;7.90;1.53;;;;;;;;;;5095365;28;20494;-70
2021/06/15 12:01:37;;;;;;;9.67;1.90;;;;;;;;;;5104429;28;20870;-71
2021/06/15 12:04:10;;;;;;;7.37;1.63;;;;;;;;;;5102463;27;20448;-70
2021/06/15 12:06:41;;;;;;;9.73;1.97;;;;;;;;;;5115903;27;20912;-70
2021/06/15 12:09:09;;;;;;;10.30;2.20;;;;;;;;;;5115655;27;20806;-70
2021/06/15 12:11:39;;;;;;;8.77;2.27;;;;;;;;;;5110301;27;20471;-69
2021/06/15 12:14:12;;;;;;;4.03;1.33;;;;;;;;;;5114315;27;20443;-70
2021/06/15 12:16:43;;;;;;;9.17;1.60;;;;;;;;;;5114244;27;20458;-70
2021/06/15 12:19:12;;;;;;;8.20;1.27;;;;;;;;;;5113562;27;20446;-69
2021/06/15 12:21:47;;;;;;;6.07;1.97;;;;;;;;;;5114775;27;20462;-70
2021/06/15 12:24:24;;;;;;;6.20;1.40;;;;;;;;;;5112033;27;20443;-70
2021/06/15 12:27:10;;;;;;;4.20;1.20;;;;;;;;;;5116039;27;20514;-71
2021/06/15 12:29:39;;;;;;;7.50;2.30;;;;;;;;;;5116526;27;20450;-70
2021/06/15 12:32:10;;;;;;;13.00;2.10;;;;;;;;;;5116627;27;20450;-70
2021/06/15 12:34:42;;;;;;;7.23;1.43;;;;;;;;;;5116236;27;20531;-70
2021/06/15 12:37:12;;;;;;;8.80;1.70;;;;;;;;;;5115834;27;20462;-69
2021/06/15 12:39:41;;;;;;;6.60;1.47;;;;;;;;;;5115998;27;20464;-71
2021/06/15 12:42:21;;;;;;;5.03;1.90;;;;;;;;;;5115826;27;20538;-69
2021/06/15 12:44:56;;;;;;;7.37;2.27;;;;;;;;;;5109382;27;20487;-70
2021/06/15 12:47:24;;;;;;;6.03;1.57;;;;;;;;;;5096475;28;20549;-71
2021/06/15 12:49:52;;;;;;;5.20;1.40;;;;;;;;;;5114340;27;20453;-70
2021/06/15 12:52:34;;;;;;;6.67;1.70;;;;;;;;;;5119317;27;20466;-70
2021/06/15 12:55:09;;;;;;;5.10;2.30;;;;;;;;;;5120285;27;20883;-71
2021/06/15 12:57:37;;;;;;;3.97;1.50;;;;;;;;;;5118805;27;20472;-70
2021/06/15 13:00:06;;;;;;;5.87;1.63;;;;;;;;;;5117938;27;20455;-70
2021/06/15 13:02:40;;;;;;;3.97;1.30;;;;;;;;;;5118524;27;20447;-73
2021/06/15 13:05:10;;;;;;;6.40;1.80;;;;;;;;;;5103261;27;20462;-70
2021/06/15 13:08:16;;;;;;;3.40;1.10;;;;;;;;;;5119158;27;20508;-71
2021/06/15 13:10:48;;;;;;;3.20;1.30;;;;;;;;;;5118206;27;20537;-71
2021/06/15 13:13:29;;;;;;;6.90;1.97;;;;;;;;;;5119308;27;20523;-71
2021/06/15 13:16:14;;;;;;;4.23;1.73;;;;;;;;;;5098280;28;20531;-72
2021/06/15 13:18:58;;;;;;;3.67;1.80;;;;;;;;;;5115785;27;20469;-73
2021/06/15 13:21:26;;;;;;;6.97;1.63;;;;;;;;;;5135022;27;20442;-70
2021/06/15 13:24:17;;;;;;;3.67;1.37;;;;;;;;;;5116464;27;20458;-71
2021/06/15 13:27:13;;;;;;;7.30;2.93;;;;;;;;;;5094481;28;20467;-70
2021/06/15 13:29:49;;;;;;;5.30;1.87;;;;;;;;;;5098564;28;20465;-72
2021/06/15 13:32:22;;;;;;;4.10;1.53;;;;;;;;;;5110919;27;20442;-72
2021/06/15 13:35:10;;;;;;;11.27;1.87;;;;;;;;;;5117423;27;20918;-72
2021/06/15 13:37:40;;;;;;;10.43;1.60;;;;;;;;;;5102130;27;20455;-71
2021/06/15 13:40:09;;;;;;;6.10;1.50;;;;;;;;;;5116750;27;20466;-70
2021/06/15 13:42:40;;;;;;;7.10;1.50;;;;;;;;;;5116605;27;20533;-71
2021/06/15 13:45:27;;;;;;;7.17;1.77;;;;;;;;;;5117189;27;20473;-73
2021/06/15 13:47:56;;;;;;;7.83;1.63;;;;;;;;;;5116495;27;20482;-72
2021/06/15 13:50:24;;;;;;;3.47;1.53;;;;;;;;;;5115611;27;20562;-70
2021/06/15 13:52:52;;;;;;;7.03;1.70;;;;;;;;;;5114991;27;20635;-72
2021/06/15 13:55:20;;;;;;;7.20;1.53;;;;;;;;;;5111746;28;20865;-71
2021/06/15 13:57:49;;;;;;;5.63;1.80;;;;;;;;;;5118355;27;20526;-70
2021/06/15 14:00:22;;;;;;;6.17;1.47;;;;;;;;;;5113577;27;20858;-72
2021/06/15 14:02:51;;;;;;;9.60;2.00;;;;;;;;;;5105279;28;20466;-71
2021/06/15 14:05:20;;;;;;;5.97;1.77;;;;;;;;;;5116431;27;20455;-71
2021/06/15 14:07:48;;;;;;;5.63;1.87;;;;;;;;;;5115518;27;20478;-70
2021/06/15 14:10:20;;;;;;;7.23;2.33;;;;;;;;;;5115700;27;21012;-70
2021/06/15 14:12:53;;;;;;;3.63;1.93;;;;;;;;;;5117394;27;20462;-70
2021/06/15 14:15:23;;;;;;;4.93;1.30;;;;;;;;;;5115546;27;20469;-70
2021/06/15 14:17:54;;;;;;;4.13;1.37;;;;;;;;;;5104448;28;20494;-71
2021/06/15 14:20:23;;;;;;;6.13;2.17;;;;;;;;;;5116200;27;20910;-70
2021/06/15 14:22:52;;;;;;;4.53;1.63;;;;;;;;;;5116862;27;20447;-70
2021/06/15 14:25:21;;;;;;;6.80;1.77;;;;;;;;;;5116340;27;20567;-70
2021/06/15 14:27:50;;;;;;;5.70;1.93;;;;;;;;;;5117309;27;20479;-70
2021/06/15 14:30:20;;;;;;;4.20;2.57;;;;;;;;;;5116310;27;20451;-70
2021/06/15 14:32:50;;;;;;;6.97;2.30;;;;;;;;;;5116430;27;20873;-70
2021/06/15 14:38:22;;;;;;;7.00;1.80;;;;;;;;;;5113655;27;20505;-70
2021/06/15 14:40:51;;;;;;;5.70;1.90;;;;;;;;;;5108142;28;20835;-70
2021/06/15 14:43:19;;;;;;;7.63;1.97;;;;;;;;;;5116433;27;20455;-71
2021/06/15 14:45:51;;;;;;;4.53;1.53;;;;;;;;;;5114277;27;20458;-71
2021/06/15 14:48:21;;;;;;;5.80;2.00;;;;;;;;;;5116583;27;20493;-71
2021/06/15 14:50:49;;;;;;;7.80;1.97;;;;;;;;;;5116129;27;20901;-71
2021/06/15 14:53:18;;;;;;;8.20;3.63;;;;;;;;;;5115654;27;20474;-71
2021/06/15 14:55:46;;;;;;;7.03;2.03;;;;;;;;;;5095980;28;20450;-71
2021/06/15 14:58:14;;;;;;;5.80;1.70;;;;;;;;;;5103588;28;20479;-71
2021/06/15 15:00:48;;;;;;;4.27;1.80;;;;;;;;;;5107839;27;20451;-71
2021/06/15 15:03:23;;;;;;;7.67;2.00;;;;;;;;;;5108805;27;20518;-72
2021/06/15 15:05:57;;;;;;;4.67;1.80;;;;;;;;;;5109596;28;20746;-71
2021/06/15 15:08:32;;;;;;;5.57;1.50;;;;;;;;;;5112779;27;20474;-71
2021/06/15 15:11:00;;;;;;;6.23;1.70;;;;;;;;;;5116455;27;20458;-72
2021/06/15 15:13:31;;;;;;;2.80;1.30;;;;;;;;;;5112735;27;20497;-70
2021/06/15 15:16:10;;;;;;;2.87;1.57;;;;;;;;;;5111355;28;20494;-70
2021/06/15 15:18:40;;;;;;;5.33;1.23;;;;;;;;;;5114558;27;20497;-70